Aviation Digital Data Service (ADDS)

Output produced by METARs form (1042 UTC 20 August 2014)
found at http://aviationweather.gov/adds/metars/
 
KMPV 200535Z 2006/2106 31004KT P6SM SKC 
     FM200630 00000KT 1/4SM FG VV001 
     FM201300 00000KT P6SM SKC 
     FM201600 16005KT P6SM SCT045 BKN120